Time;durP1;ratioP1;P1;durP2;ratioP2;P2;SDS_P1;SDS_P2;PMS_P1;PMS_P2;Temp;Humidity;BMP_temperature;BMP_pressure;BME280_temperature;BME280_humidity;BME280_pressure;Samples;Min_cycle;Max_cycle;Signal;HPM_P1;HPM_P2
2023/03/31 00:02:01;;;;;;;11.40;3.10;;;;;;;10.01;100.00;100223.56;5283254;28;20328;-73
2023/03/31 00:04:32;;;;;;;7.63;2.70;;;;;;;9.98;100.00;100204.53;5282886;28;20035;-73
2023/03/31 00:07:04;;;;;;;8.73;3.10;;;;;;;9.91;100.00;100201.19;5283263;28;20032;-73
2023/03/31 00:09:36;;;;;;;9.45;3.15;;;;;;;9.74;100.00;100175.50;5282837;28;20087;-73
2023/03/31 00:12:07;;;;;;;11.53;3.30;;;;;;;9.71;100.00;100175.56;5283191;28;20028;-73
2023/03/31 00:14:39;;;;;;;11.50;4.10;;;;;;;9.66;100.00;100175.63;5282137;28;20028;-73
2023/03/31 00:17:11;;;;;;;9.20;3.80;;;;;;;9.63;100.00;100167.88;5283054;28;20050;-73
2023/03/31 00:19:42;;;;;;;10.47;3.10;;;;;;;9.56;100.00;100157.59;5283305;28;20071;-73
2023/03/31 00:22:13;;;;;;;10.00;3.33;;;;;;;9.54;100.00;100151.59;5283572;28;20021;-73
2023/03/31 00:24:45;;;;;;;15.13;3.23;;;;;;;9.52;100.00;100149.00;5283004;28;20027;-73
2023/03/31 00:27:16;;;;;;;10.77;2.93;;;;;;;9.50;100.00;100148.19;5283253;28;20060;-73
2023/03/31 00:29:49;;;;;;;9.40;3.20;;;;;;;9.43;100.00;100136.16;5283035;28;20094;-73
2023/03/31 00:32:20;;;;;;;11.30;3.30;;;;;;;9.43;100.00;100133.56;5283170;28;20084;-76
2023/03/31 00:34:52;;;;;;;9.40;3.37;;;;;;;9.39;100.00;100122.38;5283165;28;20032;-73
2023/03/31 00:37:23;;;;;;;9.60;3.30;;;;;;;9.41;100.00;100131.00;5282793;28;20056;-73
2023/03/31 00:39:55;;;;;;;10.77;3.10;;;;;;;9.42;100.00;100119.72;5281451;28;20028;-73
2023/03/31 00:42:27;;;;;;;12.48;3.70;;;;;;;9.46;100.00;100118.75;5282983;28;20036;-73
2023/03/31 00:45:13;;;;;;;11.13;3.60;;;;;;;9.51;100.00;100110.00;5283008;28;20024;-73
2023/03/31 00:47:59;;;;;;;11.43;2.95;;;;;;;9.51;100.00;100103.06;5282979;28;20355;-73
2023/03/31 00:50:36;;;;;;;9.07;2.75;;;;;;;9.53;100.00;100095.22;5283461;28;20023;-72
2023/03/31 00:53:14;;;;;;;8.15;3.10;;;;;;;9.55;100.00;100102.13;5283396;28;20153;-73
2023/03/31 00:55:53;;;;;;;11.15;3.55;;;;;;;9.54;100.00;100095.19;5284018;28;20085;-73
2023/03/31 00:58:28;;;;;;;12.55;3.30;;;;;;;9.60;100.00;100094.22;5283805;28;20026;-72
2023/03/31 01:01:02;;;;;;;11.68;3.38;;;;;;;9.62;100.00;100084.63;5283624;28;20032;-73
2023/03/31 01:03:33;;;;;;;15.20;3.63;;;;;;;9.68;100.00;100087.13;5283957;28;20020;-73
2023/03/31 01:06:09;;;;;;;11.73;3.77;;;;;;;9.70;100.00;100076.69;5284324;28;20063;-73
2023/03/31 01:08:41;;;;;;;10.68;3.58;;;;;;;9.70;100.00;100069.72;5284642;28;20358;-72
2023/03/31 01:11:16;;;;;;;8.40;2.83;;;;;;;9.75;100.00;100069.63;5283950;28;20107;-72
2023/03/31 01:13:50;;;;;;;10.13;3.22;;;;;;;9.80;100.00;100076.44;5283469;28;20028;-73
2023/03/31 01:16:22;;;;;;;10.02;3.60;;;;;;;9.83;100.00;100067.72;5283227;28;20021;-73
2023/03/31 01:18:56;;;;;;;12.63;3.17;;;;;;;9.85;100.00;100063.34;5287004;28;20058;-72
2023/03/31 01:22:00;;;;;;;14.25;3.10;;;;;;;9.82;100.00;100051.25;5287369;28;20111;-72
2023/03/31 01:24:50;;;;;;;11.32;2.80;;;;;;;9.74;100.00;100050.56;5287339;28;20034;-72
2023/03/31 01:28:05;;;;;;;15.80;4.07;;;;;;;9.70;100.00;100042.84;5286508;28;20336;-75
2023/03/31 01:31:07;;;;;;;10.43;3.17;;;;;;;9.64;100.00;100047.31;5286138;28;20099;-73
2023/03/31 01:33:59;;;;;;;14.18;3.58;;;;;;;9.62;100.00;100041.25;5286115;28;20033;-73
2023/03/31 01:36:30;;;;;;;16.38;3.75;;;;;;;9.65;100.00;100035.13;5286605;28;20016;-73
2023/03/31 01:39:13;;;;;;;15.87;3.83;;;;;;;9.61;100.00;100036.06;5286037;28;20025;-74
2023/03/31 01:41:49;;;;;;;13.68;3.22;;;;;;;9.58;100.00;100028.31;5285702;28;20115;-74
2023/03/31 01:44:53;;;;;;;13.82;3.47;;;;;;;9.56;100.00;100015.34;5286017;28;20359;-74
2023/03/31 01:47:39;;;;;;;18.38;4.40;;;;;;;9.55;100.00;100005.00;5285703;28;20046;-73
2023/03/31 01:50:44;;;;;;;14.00;4.60;;;;;;;9.52;100.00;100000.72;5285897;28;20017;-71
2023/03/31 01:53:55;;;;;;;17.70;4.40;;;;;;;9.49;100.00;99990.38;5284567;28;20024;-73
2023/03/31 01:56:38;;;;;;;19.35;4.70;;;;;;;9.46;100.00;99982.63;5277066;28;20521;-80
2023/03/31 01:59:22;;;;;;;13.13;4.00;;;;;;;9.42;100.00;99974.03;5285800;28;20364;-74
2023/03/31 02:02:11;;;;;;;15.73;4.68;;;;;;;9.38;100.00;99963.72;5285681;28;20025;-75
2023/03/31 02:04:55;;;;;;;12.70;3.90;;;;;;;9.37;100.00;99964.59;5285664;28;20111;-74
2023/03/31 02:07:33;;;;;;;14.00;3.88;;;;;;;9.37;100.00;99952.47;5285669;28;20106;-74
2023/03/31 02:10:09;;;;;;;15.48;3.35;;;;;;;9.34;100.00;99936.94;5284927;28;20119;-76
2023/03/31 02:12:43;;;;;;;16.65;4.00;;;;;;;9.29;100.00;99933.56;5283669;28;20028;-76
2023/03/31 02:15:22;;;;;;;14.45;4.25;;;;;;;9.25;100.00;99926.72;5285433;28;20112;-74
2023/03/31 02:17:57;;;;;;;15.27;4.20;;;;;;;9.30;100.00;99917.91;5285356;28;20059;-74
2023/03/31 02:20:31;;;;;;;15.40;4.75;;;;;;;9.28;100.00;99903.25;5285201;28;20123;-74
2023/03/31 02:23:04;;;;;;;15.50;4.10;;;;;;;9.29;100.00;99895.41;5285245;28;20032;-74
2023/03/31 02:25:37;;;;;;;;;;;;;;;9.24;100.00;99894.66;5285479;28;20452;-74
2023/03/31 02:28:11;;;;;;;;;;;;;;;9.23;100.00;99879.94;5285535;28;19908;-74
2023/03/31 02:31:05;;;;;;;17.40;5.15;;;;;;;9.26;100.00;99868.63;5284686;28;19915;-74
2023/03/31 02:33:37;;;;;;;17.52;4.57;;;;;;;9.29;100.00;99874.59;5284894;28;20484;-75
2023/03/31 02:36:08;;;;;;;15.60;5.00;;;;;;;9.28;100.00;99867.69;5284891;28;20031;-74
2023/03/31 02:38:46;;;;;;;16.97;4.97;;;;;;;9.27;100.00;99849.50;5284834;28;20020;-75
2023/03/31 02:41:18;;;;;;;20.45;5.32;;;;;;;9.28;100.00;99827.81;5284812;28;20029;-74
2023/03/31 02:43:49;;;;;;;23.50;5.23;;;;;;;9.25;100.00;99825.28;5284399;28;20054;-74
2023/03/31 02:46:21;;;;;;;21.10;4.57;;;;;;;9.26;100.00;99829.63;5284608;28;20024;-76
2023/03/31 02:48:55;;;;;;;25.20;5.72;;;;;;;9.24;100.00;99816.66;5283434;28;20033;-74
2023/03/31 02:51:58;;;;;;;22.52;5.20;;;;;;;9.22;100.00;99800.19;5284100;28;20043;-74
2023/03/31 02:54:54;;;;;;;25.07;6.37;;;;;;;9.23;100.00;99791.53;5280285;28;20113;-75
2023/03/31 02:57:55;;;;;;;19.45;4.43;;;;;;;9.20;100.00;99782.94;5284511;28;20342;-74
2023/03/31 03:00:42;;;;;;;16.20;4.82;;;;;;;9.22;100.00;99773.34;5284391;28;20103;-75
2023/03/31 03:03:34;;;;;;;24.58;5.45;;;;;;;9.19;100.00;99760.44;5284474;28;20056;-74
2023/03/31 03:06:26;;;;;;;24.40;4.27;;;;;;;9.21;100.00;99756.91;5284414;28;20460;-73
2023/03/31 03:09:05;;;;;;;17.60;5.07;;;;;;;9.20;100.00;99764.75;5284325;28;20484;-73
2023/03/31 03:11:42;;;;;;;16.35;3.97;;;;;;;9.19;100.00;99760.44;5284241;28;20175;-74
2023/03/31 03:14:22;;;;;;;22.15;4.60;;;;;;;9.20;100.00;99751.75;5283914;28;20025;-73
2023/03/31 03:17:01;;;;;;;23.08;5.95;;;;;;;9.19;100.00;99763.03;5284104;28;20020;-73
2023/03/31 03:19:32;;;;;;;21.45;4.50;;;;;;;9.20;100.00;99738.75;5284244;28;20024;-73
2023/03/31 03:22:04;;;;;;;17.37;4.77;;;;;;;9.16;100.00;99729.28;5282742;28;20028;-73
2023/03/31 03:24:35;;;;;;;27.77;5.57;;;;;;;9.18;100.00;99736.19;5282799;28;20044;-74
2023/03/31 03:27:06;;;;;;;20.33;5.00;;;;;;;9.19;100.00;99737.03;5282638;28;20090;-74
2023/03/31 03:29:38;;;;;;;20.40;4.47;;;;;;;9.17;100.00;99742.25;5283410;28;20151;-74
2023/03/31 03:32:10;;;;;;;14.53;3.70;;;;;;;9.17;100.00;99734.47;5283672;28;20052;-74
2023/03/31 03:34:42;;;;;;;17.27;4.25;;;;;;;9.16;100.00;99737.09;5283732;28;20025;-74
2023/03/31 03:37:13;;;;;;;24.17;5.53;;;;;;;9.18;100.00;99735.34;5283408;28;20032;-73
2023/03/31 03:39:44;;;;;;;16.23;4.57;;;;;;;9.19;100.00;99724.03;5283609;28;20407;-74
2023/03/31 03:42:16;;;;;;;20.27;4.90;;;;;;;9.18;100.00;99711.94;5283299;28;20024;-74
2023/03/31 03:44:47;;;;;;;24.27;5.77;;;;;;;9.17;100.00;99705.00;5283624;28;20024;-74
2023/03/31 03:47:18;;;;;;;26.00;4.07;;;;;;;9.12;100.00;99697.31;5283619;28;20031;-73
2023/03/31 03:49:50;;;;;;;19.00;4.67;;;;;;;9.15;100.00;99696.41;5281797;28;20031;-72
2023/03/31 03:52:21;;;;;;;18.60;3.77;;;;;;;9.12;100.00;99681.72;5283479;28;20024;-74
2023/03/31 03:54:52;;;;;;;18.93;4.30;;;;;;;9.10;100.00;99667.91;5283438;28;20075;-73
2023/03/31 03:57:25;;;;;;;16.60;3.97;;;;;;;9.03;100.00;99662.03;5283354;28;20074;-74
2023/03/31 03:59:56;;;;;;;21.45;5.22;;;;;;;8.98;100.00;99650.84;5283258;28;20115;-73
2023/03/31 04:02:27;;;;;;;19.17;4.67;;;;;;;9.03;100.00;99654.22;5283313;28;20107;-73
2023/03/31 04:04:59;;;;;;;13.50;3.50;;;;;;;8.96;100.00;99639.66;5282103;28;20056;-73
2023/03/31 04:07:30;;;;;;;16.63;4.10;;;;;;;8.95;100.00;99627.53;5283149;28;20025;-73
2023/03/31 04:10:01;;;;;;;19.63;4.13;;;;;;;8.96;100.00;99628.41;5283106;28;20053;-72
2023/03/31 04:12:34;;;;;;;19.93;4.70;;;;;;;8.92;100.00;99618.09;5282770;28;20059;-73
2023/03/31 04:15:06;;;;;;;;;;;;;;;8.90;100.00;99612.06;5283563;28;20020;-73
2023/03/31 04:17:37;;;;;;;18.85;3.92;;;;;;;8.90;100.00;99598.22;5283125;28;19912;-73
2023/03/31 04:20:10;;;;;;;13.90;3.67;;;;;;;8.94;100.00;99599.84;5281895;28;20024;-73
2023/03/31 04:22:45;;;;;;;18.63;3.78;;;;;;;8.93;100.00;99582.53;5283101;28;20052;-73
2023/03/31 04:25:17;;;;;;;19.92;5.05;;;;;;;8.90;100.00;99586.09;5283132;28;20036;-73
2023/03/31 04:27:53;;;;;;;17.13;3.90;;;;;;;8.91;100.00;99571.34;5281728;28;20048;-73
2023/03/31 04:30:29;;;;;;;18.20;4.18;;;;;;;8.90;100.00;99565.31;5283090;28;20055;-73
2023/03/31 04:33:02;;;;;;;15.05;3.92;;;;;;;8.88;100.00;99559.25;5283101;28;20024;-73
2023/03/31 04:35:49;;;;;;;12.65;3.53;;;;;;;8.86;100.00;99560.22;5283043;28;20345;-73
2023/03/31 04:38:22;;;;;;;16.70;4.93;;;;;;;8.84;100.00;99554.19;5282993;28;20112;-72
2023/03/31 04:40:55;;;;;;;14.32;3.95;;;;;;;8.81;100.00;99536.09;5282958;28;20021;-73
2023/03/31 04:43:26;;;;;;;16.90;3.92;;;;;;;8.84;100.00;99539.47;5282797;28;20052;-73
2023/03/31 04:45:57;;;;;;;15.83;3.70;;;;;;;8.82;100.00;99527.38;5282926;28;20071;-73
2023/03/31 04:48:29;;;;;;;16.20;3.73;;;;;;;8.81;100.00;99530.91;5281434;28;20025;-73
2023/03/31 04:51:01;;;;;;;13.43;3.20;;;;;;;8.83;100.00;99514.34;5282717;28;20090;-73
2023/03/31 04:53:32;;;;;;;14.30;4.37;;;;;;;8.76;100.00;99510.22;5285686;28;20078;-73
2023/03/31 04:56:04;;;;;;;13.50;3.90;;;;;;;8.78;100.00;99512.78;5286668;28;20613;-73
2023/03/31 04:58:36;;;;;;;18.27;4.30;;;;;;;8.79;100.00;99512.75;5286478;28;20048;-73
2023/03/31 05:01:07;;;;;;;14.73;3.57;;;;;;;8.80;100.00;99511.84;5285700;28;20082;-73
2023/03/31 05:03:38;;;;;;;14.87;3.20;;;;;;;8.80;100.00;99513.59;5286468;28;20102;-74
2023/03/31 05:06:11;;;;;;;15.87;3.33;;;;;;;8.79;100.00;99519.66;5286703;28;20078;-73
2023/03/31 05:08:43;;;;;;;14.55;4.00;;;;;;;8.80;100.00;99500.59;5286721;28;20336;-74
2023/03/31 05:11:14;;;;;;;17.20;3.97;;;;;;;8.75;100.00;99491.16;5286294;28;20114;-73
2023/03/31 05:13:45;;;;;;;12.27;3.30;;;;;;;8.73;100.00;99479.97;5286181;28;20024;-73
2023/03/31 05:16:17;;;;;;;13.23;3.73;;;;;;;8.69;100.00;99478.34;5286223;28;20024;-74
2023/03/31 05:18:48;;;;;;;13.87;4.37;;;;;;;8.66;100.00;99469.78;5286489;28;20025;-73
2023/03/31 05:21:20;;;;;;;10.57;3.43;;;;;;;8.70;100.00;99466.22;5286286;28;20028;-74
2023/03/31 05:23:52;;;;;;;10.80;3.25;;;;;;;8.70;100.00;99466.22;5286080;28;20471;-74
2023/03/31 05:26:24;;;;;;;12.23;3.63;;;;;;;8.71;100.00;99452.31;5284582;28;20028;-73
2023/03/31 05:28:55;;;;;;;12.88;2.90;;;;;;;8.70;100.00;99454.06;5286363;28;20033;-73
2023/03/31 05:31:27;;;;;;;12.67;3.93;;;;;;;8.70;100.00;99450.63;5285397;28;20088;-73
2023/03/31 05:33:58;;;;;;;9.10;3.00;;;;;;;8.69;100.00;99446.31;5284934;28;20032;-74
2023/03/31 05:36:31;;;;;;;11.63;3.60;;;;;;;8.66;100.00;99439.47;5283562;28;20032;-74
2023/03/31 05:39:04;;;;;;;9.75;3.10;;;;;;;8.69;100.00;99449.75;5285823;28;20090;-73
2023/03/31 05:41:35;;;;;;;9.82;3.25;;;;;;;8.69;100.00;99443.72;5285161;28;20024;-74
2023/03/31 05:44:07;;;;;;;11.90;3.60;;;;;;;8.70;100.00;99446.28;5284090;28;20031;-73
2023/03/31 05:46:38;;;;;;;11.97;3.10;;;;;;;8.67;100.00;99442.91;5284744;28;20036;-73
2023/03/31 05:49:10;;;;;;;9.73;2.90;;;;;;;8.69;100.00;99436.75;5285493;28;20029;-73
2023/03/31 05:51:42;;;;;;;12.73;3.42;;;;;;;8.68;100.00;99435.09;5283444;28;20024;-73
2023/03/31 05:54:13;;;;;;;10.80;2.90;;;;;;;8.68;100.00;99419.50;5279659;28;20058;-74
2023/03/31 05:56:44;;;;;;;11.10;2.80;;;;;;;8.68;100.00;99421.25;5284078;28;20024;-73
2023/03/31 05:59:16;;;;;;;11.37;4.00;;;;;;;8.69;100.00;99421.19;5284405;28;20031;-73
2023/03/31 06:01:48;;;;;;;11.15;2.88;;;;;;;8.69;100.00;99418.56;5284133;28;20024;-73
2023/03/31 06:04:19;;;;;;;10.13;3.53;;;;;;;8.67;100.00;99412.59;5284171;28;20094;-74
2023/03/31 06:06:51;;;;;;;9.37;3.50;;;;;;;8.68;100.00;99409.09;5283964;28;20455;-71
2023/03/31 06:09:22;;;;;;;13.77;3.27;;;;;;;8.70;100.00;99409.91;5284760;28;20455;-72
2023/03/31 06:11:54;;;;;;;10.23;3.20;;;;;;;8.67;100.00;99399.59;5284423;28;20049;-71
2023/03/31 06:14:26;;;;;;;11.70;3.07;;;;;;;8.69;100.00;99394.34;5284520;28;20506;-72
2023/03/31 06:16:58;;;;;;;;;;;;;;;8.70;100.00;99373.53;5284906;28;20033;-72
2023/03/31 06:19:30;;;;;;;12.55;3.30;;;;;;;8.68;100.00;99367.53;5284678;28;20366;-72
2023/03/31 06:22:01;;;;;;;16.98;3.97;;;;;;;8.72;100.00;99374.34;5284437;28;20028;-73
2023/03/31 06:24:33;;;;;;;10.80;3.37;;;;;;;8.78;100.00;99375.09;5284234;28;20024;-73
2023/03/31 06:27:05;;;;;;;12.87;3.30;;;;;;;8.75;100.00;99366.47;5283107;28;20476;-72
2023/03/31 06:29:37;;;;;;;;;;;;;;;8.74;100.00;99353.50;5284548;28;20040;-73
2023/03/31 06:32:08;;;;;;;16.08;3.70;;;;;;;8.76;100.00;99355.19;5284227;28;19919;-72
2023/03/31 06:34:40;;;;;;;14.73;3.43;;;;;;;8.75;100.00;99350.88;5282835;28;20024;-72
2023/03/31 06:37:11;;;;;;;10.30;3.10;;;;;;;8.71;100.00;99383.03;5277897;28;20029;-72
2023/03/31 06:39:43;;;;;;;12.80;3.73;;;;;;;8.71;100.00;99385.63;5281418;28;20024;-72
2023/03/31 06:42:15;;;;;;;17.95;4.55;;;;;;;8.70;100.00;99357.94;5281968;28;20344;-72
2023/03/31 06:44:46;;;;;;;16.47;4.37;;;;;;;8.76;100.00;99362.97;5281350;28;20112;-72
2023/03/31 06:47:17;;;;;;;15.23;5.20;;;;;;;8.78;100.00;99360.34;5282299;28;20025;-72
2023/03/31 06:49:49;;;;;;;15.80;6.17;;;;;;;8.85;100.00;99368.81;5282797;28;20390;-72
2023/03/31 06:52:20;;;;;;;18.27;4.30;;;;;;;8.82;100.00;99364.53;5283678;28;20033;-73
2023/03/31 06:54:51;;;;;;;23.43;5.13;;;;;;;8.87;100.00;99364.41;5280839;28;20089;-72
2023/03/31 06:57:23;;;;;;;17.73;5.30;;;;;;;8.88;100.00;99350.53;5283693;28;20519;-71
2023/03/31 06:59:54;;;;;;;13.97;4.57;;;;;;;8.88;100.00;99356.56;5282977;28;20036;-71
2023/03/31 07:02:26;;;;;;;19.87;5.60;;;;;;;8.90;100.00;99361.72;5283645;28;20424;-71
2023/03/31 07:04:57;;;;;;;18.63;5.80;;;;;;;8.90;100.00;99369.50;5282290;28;20060;-71
2023/03/31 07:07:32;;;;;;;22.20;5.27;;;;;;;8.86;100.00;99352.31;5283166;28;20041;-71
2023/03/31 07:10:04;;;;;;;18.55;5.28;;;;;;;8.87;100.00;99367.88;5281393;28;20074;-70
2023/03/31 07:12:35;;;;;;;20.90;5.30;;;;;;;8.90;100.00;99352.19;5282872;28;20048;-71
2023/03/31 07:15:07;;;;;;;17.00;5.87;;;;;;;8.98;100.00;99345.91;5281366;28;20028;-72
2023/03/31 07:17:41;;;;;;;18.63;4.97;;;;;;;8.94;100.00;99346.00;5283146;28;20032;-70
2023/03/31 07:20:14;;;;;;;18.27;4.35;;;;;;;8.98;100.00;99330.31;5281100;28;20078;-71
2023/03/31 07:22:47;;;;;;;18.33;4.55;;;;;;;8.99;100.00;99345.03;5282393;28;20092;-72
2023/03/31 07:25:19;;;;;;;17.10;4.82;;;;;;;9.02;100.00;99337.97;5280430;28;20028;-71
2023/03/31 07:27:50;;;;;;;14.43;4.70;;;;;;;8.98;100.00;99338.13;5282644;28;20359;-71
2023/03/31 07:30:23;;;;;;;17.07;4.50;;;;;;;9.00;100.00;99334.59;5260740;28;20555;-71
2023/03/31 07:32:54;;;;;;;13.15;3.83;;;;;;;8.94;100.00;99324.38;5265244;28;20035;-72
2023/03/31 07:35:26;;;;;;;9.10;2.57;;;;;;;8.93;100.00;99322.66;5280731;28;20037;-72
2023/03/31 07:37:58;;;;;;;9.77;3.17;;;;;;;8.94;100.00;99327.81;5281283;28;20474;-72
2023/03/31 07:40:29;;;;;;;12.03;3.03;;;;;;;8.99;100.00;99322.47;5281514;28;20025;-70
2023/03/31 07:43:01;;;;;;;12.70;2.90;;;;;;;8.98;100.00;99325.13;5282254;28;20020;-72
2023/03/31 07:45:33;;;;;;;9.97;2.77;;;;;;;9.05;100.00;99327.50;5280469;28;20048;-72
2023/03/31 07:48:04;;;;;;;14.10;3.47;;;;;;;9.09;100.00;99310.88;5282674;28;20024;-72
2023/03/31 07:50:36;;;;;;;14.47;3.67;;;;;;;9.22;100.00;99320.94;5273801;28;20028;-72
2023/03/31 07:53:07;;;;;;;11.13;3.87;;;;;;;9.28;100.00;99320.75;5268803;28;20030;-73
2023/03/31 07:55:39;;;;;;;17.53;4.00;;;;;;;9.38;100.00;99314.34;5280679;28;20032;-72
2023/03/31 07:58:10;;;;;;;15.47;4.53;;;;;;;9.43;100.00;99322.84;5281925;28;20029;-72
2023/03/31 08:00:42;;;;;;;11.53;4.10;;;;;;;9.48;100.00;99310.56;5279973;28;20028;-72
2023/03/31 08:03:13;;;;;;;16.37;5.17;;;;;;;9.55;100.00;99310.38;5282179;28;20032;-72
2023/03/31 08:05:45;;;;;;;15.50;5.17;;;;;;;9.60;100.00;99308.47;5280372;28;20039;-72
2023/03/31 08:08:16;;;;;;;23.07;5.57;;;;;;;9.66;100.00;99311.72;5281267;28;20025;-70
2023/03/31 08:10:48;;;;;;;19.90;5.03;;;;;;;9.77;100.00;99308.78;5272895;28;20090;-74
2023/03/31 08:13:19;;;;;;;22.65;5.63;;;;;;;9.85;100.00;99291.16;5278913;28;20128;-72
2023/03/31 08:15:51;;;;;;;19.83;5.47;;;;;;;9.85;100.00;99295.47;5281130;28;20066;-71
2023/03/31 08:18:22;;;;;;;22.67;5.50;;;;;;;9.98;100.00;99301.13;5274625;28;20436;-72
2023/03/31 08:20:54;;;;;;;26.20;6.97;;;;;;;10.03;100.00;99287.06;5281296;28;20078;-70
2023/03/31 08:23:25;;;;;;;24.10;5.90;;;;;;;10.13;100.00;99291.97;5281674;28;20020;-70
2023/03/31 08:26:13;;;;;;;19.77;6.03;;;;;;;10.10;100.00;99295.50;5282362;28;20033;-71
2023/03/31 08:28:47;;;;;;;20.80;5.35;;;;;;;10.17;100.00;99286.56;5286166;28;20012;-71
2023/03/31 08:31:20;;;;;;;21.20;5.07;;;;;;;10.20;100.00;99294.28;5285833;28;20459;-70
2023/03/31 08:33:51;;;;;;;21.17;5.22;;;;;;;10.29;100.00;99294.84;5286652;28;20108;-71
2023/03/31 08:36:24;;;;;;;23.87;5.97;;;;;;;10.31;100.00;99283.47;5283955;28;20052;-70
2023/03/31 08:38:56;;;;;;;23.77;5.80;;;;;;;10.32;100.00;99295.63;5286345;28;20016;-71
2023/03/31 08:42:04;;;;;;;20.42;6.05;;;;;;;10.30;100.00;99305.22;5285785;28;20037;-70
2023/03/31 08:44:41;;;;;;;16.08;5.63;;;;;;;10.34;100.00;99296.44;5285076;28;20024;-71
2023/03/31 08:47:19;;;;;;;20.00;5.20;;;;;;;10.29;100.00;99287.91;5286521;28;20390;-71
2023/03/31 08:50:05;;;;;;;20.77;5.20;;;;;;;10.28;100.00;99290.56;5267960;28;20055;-71
2023/03/31 08:52:57;;;;;;;18.80;4.93;;;;;;;10.40;100.00;99292.78;5277965;28;20501;-71
2023/03/31 08:55:50;;;;;;;20.20;5.05;;;;;;;10.40;100.00;99298.81;5284166;28;20068;-71
2023/03/31 08:58:41;;;;;;;25.20;6.53;;;;;;;10.53;100.00;99293.19;5280464;28;20108;-72
2023/03/31 09:01:24;;;;;;;21.13;6.22;;;;;;;10.67;100.00;99283.06;5285002;28;20031;-71
2023/03/31 09:04:27;;;;;;;15.77;5.40;;;;;;;10.77;100.00;99284.44;5281057;28;20063;-71
2023/03/31 09:07:11;;;;;;;19.80;5.93;;;;;;;10.92;100.00;99276.94;5277559;28;20105;-70
2023/03/31 09:10:14;;;;;;;23.17;5.57;;;;;;;10.95;100.00;99269.84;5281364;28;20029;-70
2023/03/31 09:12:54;;;;;;;14.20;4.88;;;;;;;11.17;100.00;99282.03;5277570;28;20128;-70
2023/03/31 09:15:32;;;;;;;15.35;5.53;;;;;;;11.22;100.00;99279.25;5285494;28;20478;-72
2023/03/31 09:18:30;;;;;;;22.02;6.28;;;;;;;11.15;100.00;99280.41;5279439;28;20028;-73
2023/03/31 09:21:24;;;;;;;24.67;6.35;;;;;;;11.16;100.00;99276.88;5284393;28;20036;-70
2023/03/31 09:24:07;;;;;;;15.88;4.57;;;;;;;11.05;100.00;99272.09;5278779;28;20471;-71
2023/03/31 09:26:55;;;;;;;16.38;5.15;;;;;;;11.09;100.00;99268.44;5284852;28;20025;-72
2023/03/31 09:29:54;;;;;;;20.42;5.10;;;;;;;11.08;100.00;99269.38;5285262;28;20043;-72
2023/03/31 09:32:30;;;;;;;18.33;4.50;;;;;;;11.19;100.00;99268.94;5284910;28;20025;-72
2023/03/31 09:35:24;;;;;;;20.50;4.82;;;;;;;11.18;100.00;99269.88;5281485;28;20055;-72
2023/03/31 09:37:56;;;;;;;17.75;5.30;;;;;;;11.34;100.00;99239.63;5313669;28;20025;-70
2023/03/31 09:40:27;;;;;;;14.33;5.27;;;;;;;11.44;100.00;99258.38;5284729;28;20294;-71
2023/03/31 09:43:02;;;;;;;12.73;3.80;;;;;;;11.56;100.00;99257.00;5284112;28;20028;-70
2023/03/31 09:45:34;;;;;;;19.58;4.72;;;;;;;11.84;100.00;99257.56;5282566;28;20013;-72
2023/03/31 09:48:22;;;;;;;16.70;5.72;;;;;;;12.01;97.43;99258.63;5284858;28;20401;-71
2023/03/31 09:51:03;;;;;;;17.48;4.30;;;;;;;11.96;98.41;99253.63;5283717;28;20107;-71
2023/03/31 09:53:42;;;;;;;16.38;5.18;;;;;;;11.84;96.43;99260.16;5280891;28;20029;-73
2023/03/31 09:56:43;;;;;;;11.60;4.78;;;;;;;11.85;98.24;99250.59;5278242;28;20446;-70
2023/03/31 09:59:36;;;;;;;13.38;3.97;;;;;;;11.92;96.06;99246.81;5271894;28;20465;-72
2023/03/31 10:02:21;;;;;;;;;;;;;;;11.92;95.24;99249.44;5271910;28;20067;-71
2023/03/31 10:04:53;;;;;;;10.68;3.10;;;;;;;11.89;93.26;99240.84;5272705;28;20030;-71
2023/03/31 10:07:25;;;;;;;16.73;4.65;;;;;;;11.98;96.92;99228.28;5284269;28;20016;-70
2023/03/31 10:09:56;;;;;;;8.97;3.20;;;;;;;12.08;93.12;99239.19;5283439;28;20031;-70
2023/03/31 10:12:30;;;;;;;12.03;3.90;;;;;;;12.02;93.84;99250.72;5284126;28;20047;-71
2023/03/31 10:15:19;;;;;;;12.35;4.28;;;;;;;11.86;93.37;99247.06;5280063;28;20373;-70
2023/03/31 10:17:51;;;;;;;14.50;4.72;;;;;;;11.72;93.81;99236.34;5284341;28;20066;-71
2023/03/31 10:20:36;;;;;;;14.37;4.83;;;;;;;11.77;94.70;99243.09;5283507;28;20020;-71
2023/03/31 10:23:31;;;;;;;14.20;4.32;;;;;;;11.77;92.67;99240.47;5284261;28;20125;-72
2023/03/31 10:26:03;;;;;;;11.38;3.60;;;;;;;11.69;90.88;99234.72;5283127;28;20020;-70
2023/03/31 10:28:35;;;;;;;;;;;;;;;11.78;93.42;99236.09;5284402;28;20115;-71
2023/03/31 10:31:07;;;;;;;12.07;4.03;;;;;;;11.69;93.52;99211.25;5277156;28;20043;-73
2023/03/31 10:33:43;;;;;;;10.45;3.92;;;;;;;11.73;93.48;99222.38;5283728;28;20025;-72
2023/03/31 10:36:28;;;;;;;14.45;5.10;;;;;;;11.60;93.51;99222.06;5283074;28;20364;-72
2023/03/31 10:39:05;;;;;;;14.18;4.45;;;;;;;11.49;96.62;99227.72;5284026;28;20025;-71
2023/03/31 10:41:38;;;;;;;14.00;3.63;;;;;;;11.44;98.39;99217.47;5282759;28;20413;-71
2023/03/31 10:44:29;;;;;;;;;;;;;;;11.45;98.32;99213.97;5282084;28;20051;-72
2023/03/31 10:47:12;;;;;;;14.07;3.80;;;;;;;11.60;95.71;99217.69;5272175;28;19908;-71
2023/03/31 10:49:47;;;;;;;12.90;4.30;;;;;;;11.85;95.97;99206.22;5281876;28;20016;-72
2023/03/31 10:52:22;;;;;;;11.30;3.45;;;;;;;12.00;93.48;99205.56;5282530;28;20032;-72
2023/03/31 10:55:00;;;;;;;10.85;3.42;;;;;;;12.03;92.73;99196.75;5282937;28;20093;-71
2023/03/31 10:58:00;;;;;;;11.60;3.95;;;;;;;12.16;90.12;99194.44;5272321;28;20064;-71
2023/03/31 11:00:49;;;;;;;12.40;4.38;;;;;;;12.34;93.13;99198.81;5272057;28;20028;-72
2023/03/31 11:03:41;;;;;;;12.85;3.90;;;;;;;12.27;92.03;99212.22;5275143;28;20024;-71
2023/03/31 11:06:28;;;;;;;13.75;3.88;;;;;;;11.76;94.12;99197.00;5282071;28;20448;-71
2023/03/31 11:09:19;;;;;;;12.82;3.75;;;;;;;11.31;97.79;99196.25;5283061;28;20012;-71
2023/03/31 11:12:04;;;;;;;13.48;4.40;;;;;;;11.12;99.52;99205.75;5281985;28;20056;-71
2023/03/31 11:15:18;;;;;;;18.83;5.10;;;;;;;10.85;100.00;99208.56;5273811;28;20065;-72
2023/03/31 11:18:35;;;;;;;17.42;6.15;;;;;;;10.73;100.00;99193.38;5303677;28;20017;-71
2023/03/31 11:21:15;;;;;;;19.02;5.97;;;;;;;10.94;100.00;99191.69;5274181;28;20028;-72
2023/03/31 11:24:05;;;;;;;17.67;4.63;;;;;;;11.41;100.00;99180.22;5280045;28;20028;-70
2023/03/31 11:27:03;;;;;;;13.00;4.63;;;;;;;11.43;99.71;99184.47;5282041;28;20050;-71
2023/03/31 11:29:42;;;;;;;12.50;4.03;;;;;;;11.86;98.71;99190.47;5279416;28;20047;-73
2023/03/31 11:32:44;;;;;;;12.43;3.92;;;;;;;12.12;94.29;99179.81;5271924;28;20021;-71
2023/03/31 11:35:44;;;;;;;12.07;4.85;;;;;;;12.41;91.24;99157.56;5280865;28;20141;-70
2023/03/31 11:38:32;;;;;;;9.77;3.70;;;;;;;12.40;87.70;99163.72;5281227;28;20047;-70
2023/03/31 11:41:14;;;;;;;14.32;4.55;;;;;;;12.32;87.59;99161.47;5280373;28;20521;-71
2023/03/31 11:44:02;;;;;;;16.13;4.70;;;;;;;12.25;87.24;99161.81;5281966;28;20021;-70
2023/03/31 11:46:42;;;;;;;14.88;5.00;;;;;;;12.37;86.54;99161.25;5281817;28;20032;-71
2023/03/31 11:49:21;;;;;;;12.25;4.20;;;;;;;12.60;83.44;99154.94;5280794;28;20239;-71
2023/03/31 11:51:57;;;;;;;12.13;4.03;;;;;;;12.80;80.90;99154.03;5281765;28;20076;-70
2023/03/31 11:54:43;;;;;;;11.52;4.07;;;;;;;13.02;79.61;99164.25;5283683;28;20025;-70
2023/03/31 11:57:24;;;;;;;9.20;3.80;;;;;;;13.18;80.28;99159.13;5284662;28;20028;-70
2023/03/31 12:00:21;;;;;;;12.75;3.78;;;;;;;13.47;78.71;99160.31;5283253;28;20029;-70
2023/03/31 12:03:11;;;;;;;12.80;3.30;;;;;;;13.45;75.44;99154.31;5264380;28;20148;-71
2023/03/31 12:05:49;;;;;;;12.93;3.88;;;;;;;13.45;75.05;99141.22;5280981;28;20444;-69
2023/03/31 12:08:44;;;;;;;10.57;3.72;;;;;;;13.38;73.51;99149.47;5283882;28;20021;-72
2023/03/31 12:11:32;;;;;;;9.10;3.38;;;;;;;13.27;74.94;99150.81;5273389;28;20056;-70
2023/03/31 12:14:20;;;;;;;9.90;3.17;;;;;;;13.29;76.50;99145.50;5270033;28;20059;-69
2023/03/31 12:16:57;;;;;;;11.18;4.57;;;;;;;13.40;73.41;99151.09;5282046;28;20028;-69